sensor_id;sensor_type;location;lat;lon;timestamp;P1;durP1;ratioP1;P2;durP2;ratioP2
6031;SDS011;3044;43.232;27.972;2022-07-05T00:01:45;3.10;;;2.80;;
6031;SDS011;3044;43.232;27.972;2022-07-05T00:04:12;4.73;;;3.90;;
6031;SDS011;3044;43.232;27.972;2022-07-05T00:06:40;4.27;;;3.27;;
6031;SDS011;3044;43.232;27.972;2022-07-05T00:09:28;7.70;;;2.97;;
6031;SDS011;3044;43.232;27.972;2022-07-05T00:11:55;4.47;;;3.03;;
6031;SDS011;3044;43.232;27.972;2022-07-05T00:14:22;3.70;;;3.37;;
6031;SDS011;3044;43.232;27.972;2022-07-05T00:16:50;2.80;;;2.60;;
6031;SDS011;3044;43.232;27.972;2022-07-05T00:19:17;5.30;;;3.00;;
6031;SDS011;3044;43.232;27.972;2022-07-05T00:21:44;8.60;;;3.53;;
6031;SDS011;3044;43.232;27.972;2022-07-05T00:24:11;6.23;;;3.87;;
6031;SDS011;3044;43.232;27.972;2022-07-05T00:26:40;6.67;;;3.63;;
6031;SDS011;3044;43.232;27.972;2022-07-05T00:29:07;4.07;;;2.87;;
6031;SDS011;3044;43.232;27.972;2022-07-05T00:31:34;3.27;;;2.97;;
6031;SDS011;3044;43.232;27.972;2022-07-05T00:34:01;7.13;;;3.00;;
6031;SDS011;3044;43.232;27.972;2022-07-05T00:36:29;6.80;;;3.10;;
6031;SDS011;3044;43.232;27.972;2022-07-05T00:38:56;3.87;;;3.10;;
6031;SDS011;3044;43.232;27.972;2022-07-05T00:41:23;6.83;;;2.90;;
6031;SDS011;3044;43.232;27.972;2022-07-05T00:43:55;7.00;;;3.20;;
6031;SDS011;3044;43.232;27.972;2022-07-05T00:46:24;4.47;;;2.90;;
6031;SDS011;3044;43.232;27.972;2022-07-05T00:48:51;6.90;;;3.40;;
6031;SDS011;3044;43.232;27.972;2022-07-05T00:51:21;10.03;;;3.90;;
6031;SDS011;3044;43.232;27.972;2022-07-05T00:53:49;6.73;;;3.60;;
6031;SDS011;3044;43.232;27.972;2022-07-05T00:56:17;3.40;;;3.10;;
6031;SDS011;3044;43.232;27.972;2022-07-05T00:58:45;7.70;;;3.57;;
6031;SDS011;3044;43.232;27.972;2022-07-05T01:01:14;4.50;;;3.23;;
6031;SDS011;3044;43.232;27.972;2022-07-05T01:03:41;7.63;;;3.03;;
6031;SDS011;3044;43.232;27.972;2022-07-05T01:06:10;4.53;;;3.50;;
6031;SDS011;3044;43.232;27.972;2022-07-05T01:08:39;10.00;;;3.53;;
6031;SDS011;3044;43.232;27.972;2022-07-05T01:11:09;5.17;;;3.27;;
6031;SDS011;3044;43.232;27.972;2022-07-05T01:13:36;13.10;;;3.30;;
6031;SDS011;3044;43.232;27.972;2022-07-05T01:16:04;6.30;;;3.07;;
6031;SDS011;3044;43.232;27.972;2022-07-05T01:18:33;3.40;;;3.07;;
6031;SDS011;3044;43.232;27.972;2022-07-05T01:21:01;6.77;;;3.17;;
6031;SDS011;3044;43.232;27.972;2022-07-05T01:23:31;3.70;;;3.40;;
6031;SDS011;3044;43.232;27.972;2022-07-05T01:26:00;5.80;;;3.00;;
6031;SDS011;3044;43.232;27.972;2022-07-05T01:28:28;6.60;;;3.60;;
6031;SDS011;3044;43.232;27.972;2022-07-05T01:30:56;6.90;;;3.33;;
6031;SDS011;3044;43.232;27.972;2022-07-05T01:33:27;10.93;;;2.50;;
6031;SDS011;3044;43.232;27.972;2022-07-05T01:35:55;2.90;;;2.80;;
6031;SDS011;3044;43.232;27.972;2022-07-05T01:38:24;3.73;;;3.43;;
6031;SDS011;3044;43.232;27.972;2022-07-05T01:40:53;3.97;;;3.00;;
6031;SDS011;3044;43.232;27.972;2022-07-05T01:43:22;3.57;;;2.70;;
6031;SDS011;3044;43.232;27.972;2022-07-05T01:45:50;9.70;;;3.27;;
6031;SDS011;3044;43.232;27.972;2022-07-05T01:48:21;3.50;;;2.83;;
6031;SDS011;3044;43.232;27.972;2022-07-05T01:50:49;4.27;;;2.83;;
6031;SDS011;3044;43.232;27.972;2022-07-05T01:53:19;3.10;;;2.77;;
6031;SDS011;3044;43.232;27.972;2022-07-05T01:55:48;8.00;;;3.50;;
6031;SDS011;3044;43.232;27.972;2022-07-05T01:58:17;19.27;;;3.57;;
6031;SDS011;3044;43.232;27.972;2022-07-05T02:00:45;2.83;;;2.60;;
6031;SDS011;3044;43.232;27.972;2022-07-05T02:03:14;8.30;;;3.00;;
6031;SDS011;3044;43.232;27.972;2022-07-05T02:05:43;3.07;;;2.70;;
6031;SDS011;3044;43.232;27.972;2022-07-05T02:08:11;5.07;;;2.30;;
6031;SDS011;3044;43.232;27.972;2022-07-05T02:10:39;6.13;;;2.67;;
6031;SDS011;3044;43.232;27.972;2022-07-05T02:13:07;2.60;;;2.50;;
6031;SDS011;3044;43.232;27.972;2022-07-05T02:15:36;3.33;;;3.10;;
6031;SDS011;3044;43.232;27.972;2022-07-05T02:18:05;5.33;;;3.40;;
6031;SDS011;3044;43.232;27.972;2022-07-05T02:20:33;3.53;;;2.87;;
6031;SDS011;3044;43.232;27.972;2022-07-05T02:23:01;3.13;;;2.57;;
6031;SDS011;3044;43.232;27.972;2022-07-05T02:25:29;7.07;;;2.83;;
6031;SDS011;3044;43.232;27.972;2022-07-05T02:27:56;2.67;;;2.43;;
6031;SDS011;3044;43.232;27.972;2022-07-05T02:30:24;5.43;;;2.30;;
6031;SDS011;3044;43.232;27.972;2022-07-05T02:32:52;5.83;;;2.70;;
6031;SDS011;3044;43.232;27.972;2022-07-05T02:35:19;5.00;;;2.33;;
6031;SDS011;3044;43.232;27.972;2022-07-05T02:37:46;6.70;;;2.67;;
6031;SDS011;3044;43.232;27.972;2022-07-05T02:40:13;12.97;;;2.23;;
6031;SDS011;3044;43.232;27.972;2022-07-05T02:42:40;4.70;;;2.47;;
6031;SDS011;3044;43.232;27.972;2022-07-05T02:45:08;8.00;;;3.10;;
6031;SDS011;3044;43.232;27.972;2022-07-05T02:47:35;8.43;;;2.50;;
6031;SDS011;3044;43.232;27.972;2022-07-05T02:50:05;4.80;;;2.43;;
6031;SDS011;3044;43.232;27.972;2022-07-05T02:52:33;7.10;;;2.67;;
6031;SDS011;3044;43.232;27.972;2022-07-05T02:55:01;6.40;;;2.53;;
6031;SDS011;3044;43.232;27.972;2022-07-05T02:57:28;5.80;;;2.47;;
6031;SDS011;3044;43.232;27.972;2022-07-05T02:59:55;5.63;;;2.70;;
6031;SDS011;3044;43.232;27.972;2022-07-05T03:02:23;4.90;;;3.00;;
6031;SDS011;3044;43.232;27.972;2022-07-05T03:04:50;5.47;;;2.37;;
6031;SDS011;3044;43.232;27.972;2022-07-05T03:07:19;3.03;;;2.70;;
6031;SDS011;3044;43.232;27.972;2022-07-05T03:09:46;6.90;;;2.80;;
6031;SDS011;3044;43.232;27.972;2022-07-05T03:12:13;9.63;;;2.43;;
6031;SDS011;3044;43.232;27.972;2022-07-05T03:14:40;3.80;;;2.40;;
6031;SDS011;3044;43.232;27.972;2022-07-05T03:17:07;7.40;;;2.13;;
6031;SDS011;3044;43.232;27.972;2022-07-05T03:19:35;8.40;;;2.93;;
6031;SDS011;3044;43.232;27.972;2022-07-05T03:22:02;6.23;;;2.20;;
6031;SDS011;3044;43.232;27.972;2022-07-05T03:24:31;3.07;;;2.87;;
6031;SDS011;3044;43.232;27.972;2022-07-05T03:26:58;2.50;;;2.30;;
6031;SDS011;3044;43.232;27.972;2022-07-05T03:29:26;2.37;;;2.20;;
6031;SDS011;3044;43.232;27.972;2022-07-05T03:31:53;8.60;;;2.30;;
6031;SDS011;3044;43.232;27.972;2022-07-05T03:34:20;9.77;;;2.33;;
6031;SDS011;3044;43.232;27.972;2022-07-05T03:36:47;4.10;;;2.40;;
6031;SDS011;3044;43.232;27.972;2022-07-05T03:39:14;3.23;;;2.40;;
6031;SDS011;3044;43.232;27.972;2022-07-05T03:41:43;13.53;;;2.33;;
6031;SDS011;3044;43.232;27.972;2022-07-05T03:44:10;2.90;;;2.30;;
6031;SDS011;3044;43.232;27.972;2022-07-05T03:46:37;3.27;;;2.90;;
6031;SDS011;3044;43.232;27.972;2022-07-05T03:49:04;3.27;;;2.97;;
6031;SDS011;3044;43.232;27.972;2022-07-05T03:51:31;2.37;;;2.27;;
6031;SDS011;3044;43.232;27.972;2022-07-05T03:53:59;5.80;;;2.40;;
6031;SDS011;3044;43.232;27.972;2022-07-05T03:56:26;2.80;;;2.60;;
6031;SDS011;3044;43.232;27.972;2022-07-05T03:58:55;4.57;;;2.67;;
6031;SDS011;3044;43.232;27.972;2022-07-05T04:01:22;2.70;;;2.50;;
6031;SDS011;3044;43.232;27.972;2022-07-05T04:03:49;2.70;;;2.50;;
6031;SDS011;3044;43.232;27.972;2022-07-05T04:06:16;2.90;;;2.60;;
6031;SDS011;3044;43.232;27.972;2022-07-05T04:08:43;3.70;;;2.80;;
6031;SDS011;3044;43.232;27.972;2022-07-05T04:11:10;3.47;;;2.63;;
6031;SDS011;3044;43.232;27.972;2022-07-05T04:13:38;3.80;;;2.40;;
6031;SDS011;3044;43.232;27.972;2022-07-05T04:16:08;3.20;;;2.40;;
6031;SDS011;3044;43.232;27.972;2022-07-05T04:18:35;7.60;;;3.00;;
6031;SDS011;3044;43.232;27.972;2022-07-05T04:21:02;3.53;;;2.20;;
6031;SDS011;3044;43.232;27.972;2022-07-05T04:23:30;7.20;;;2.20;;
6031;SDS011;3044;43.232;27.972;2022-07-05T04:25:57;8.63;;;2.80;;
6031;SDS011;3044;43.232;27.972;2022-07-05T04:28:26;9.30;;;2.27;;
6031;SDS011;3044;43.232;27.972;2022-07-05T04:30:55;6.40;;;2.50;;
6031;SDS011;3044;43.232;27.972;2022-07-05T04:33:24;6.70;;;2.87;;
6031;SDS011;3044;43.232;27.972;2022-07-05T04:35:51;6.70;;;2.13;;
6031;SDS011;3044;43.232;27.972;2022-07-05T04:38:18;2.83;;;2.10;;
6031;SDS011;3044;43.232;27.972;2022-07-05T04:40:46;3.60;;;2.37;;
6031;SDS011;3044;43.232;27.972;2022-07-05T04:43:13;4.07;;;2.13;;
6031;SDS011;3044;43.232;27.972;2022-07-05T04:45:40;4.23;;;2.20;;
6031;SDS011;3044;43.232;27.972;2022-07-05T04:48:08;12.30;;;2.57;;
6031;SDS011;3044;43.232;27.972;2022-07-05T04:50:37;7.00;;;3.17;;
6031;SDS011;3044;43.232;27.972;2022-07-05T04:53:04;4.63;;;2.67;;
6031;SDS011;3044;43.232;27.972;2022-07-05T04:55:31;6.03;;;2.20;;
6031;SDS011;3044;43.232;27.972;2022-07-05T04:57:58;5.10;;;2.63;;
6031;SDS011;3044;43.232;27.972;2022-07-05T05:00:26;3.20;;;2.60;;
6031;SDS011;3044;43.232;27.972;2022-07-05T05:02:53;8.00;;;2.97;;
6031;SDS011;3044;43.232;27.972;2022-07-05T05:05:20;3.20;;;2.17;;
6031;SDS011;3044;43.232;27.972;2022-07-05T05:07:48;3.40;;;2.23;;
6031;SDS011;3044;43.232;27.972;2022-07-05T05:10:16;5.13;;;2.30;;
6031;SDS011;3044;43.232;27.972;2022-07-05T05:12:43;3.53;;;2.20;;
6031;SDS011;3044;43.232;27.972;2022-07-05T05:15:10;4.00;;;2.60;;
6031;SDS011;3044;43.232;27.972;2022-07-05T05:17:37;6.10;;;2.33;;
6031;SDS011;3044;43.232;27.972;2022-07-05T05:20:06;8.27;;;2.30;;
6031;SDS011;3044;43.232;27.972;2022-07-05T05:22:37;4.87;;;2.20;;
6031;SDS011;3044;43.232;27.972;2022-07-05T05:25:06;9.60;;;2.27;;
6031;SDS011;3044;43.232;27.972;2022-07-05T05:27:34;9.67;;;2.03;;
6031;SDS011;3044;43.232;27.972;2022-07-05T05:30:01;6.10;;;1.97;;
6031;SDS011;3044;43.232;27.972;2022-07-05T05:32:29;4.40;;;1.90;;
6031;SDS011;3044;43.232;27.972;2022-07-05T05:34:56;4.83;;;2.60;;
6031;SDS011;3044;43.232;27.972;2022-07-05T05:37:23;3.93;;;2.27;;
6031;SDS011;3044;43.232;27.972;2022-07-05T05:39:50;12.90;;;2.37;;
6031;SDS011;3044;43.232;27.972;2022-07-05T05:42:18;5.90;;;2.20;;
6031;SDS011;3044;43.232;27.972;2022-07-05T05:44:46;4.20;;;2.10;;
6031;SDS011;3044;43.232;27.972;2022-07-05T05:47:13;4.60;;;1.97;;
6031;SDS011;3044;43.232;27.972;2022-07-05T05:49:40;11.90;;;2.67;;
6031;SDS011;3044;43.232;27.972;2022-07-05T05:52:07;12.60;;;3.03;;
6031;SDS011;3044;43.232;27.972;2022-07-05T05:54:34;4.90;;;2.90;;
6031;SDS011;3044;43.232;27.972;2022-07-05T05:57:02;9.33;;;2.23;;
6031;SDS011;3044;43.232;27.972;2022-07-05T05:59:30;7.47;;;2.30;;
6031;SDS011;3044;43.232;27.972;2022-07-05T06:01:58;4.17;;;2.47;;
6031;SDS011;3044;43.232;27.972;2022-07-05T06:04:25;10.87;;;2.60;;
6031;SDS011;3044;43.232;27.972;2022-07-05T06:06:52;5.40;;;2.70;;
6031;SDS011;3044;43.232;27.972;2022-07-05T06:09:19;4.07;;;2.10;;
6031;SDS011;3044;43.232;27.972;2022-07-05T06:11:46;6.10;;;2.53;;
6031;SDS011;3044;43.232;27.972;2022-07-05T06:14:13;3.13;;;2.33;;
6031;SDS011;3044;43.232;27.972;2022-07-05T06:16:42;6.97;;;2.90;;
6031;SDS011;3044;43.232;27.972;2022-07-05T06:19:09;6.90;;;2.50;;
6031;SDS011;3044;43.232;27.972;2022-07-05T06:21:36;9.50;;;2.47;;
6031;SDS011;3044;43.232;27.972;2022-07-05T06:24:03;8.10;;;2.63;;
6031;SDS011;3044;43.232;27.972;2022-07-05T06:26:31;4.23;;;2.40;;
6031;SDS011;3044;43.232;27.972;2022-07-05T06:28:58;5.63;;;2.13;;
6031;SDS011;3044;43.232;27.972;2022-07-05T06:31:25;6.00;;;2.50;;
6031;SDS011;3044;43.232;27.972;2022-07-05T06:33:53;4.77;;;2.63;;
6031;SDS011;3044;43.232;27.972;2022-07-05T06:36:21;3.53;;;2.33;;
6031;SDS011;3044;43.232;27.972;2022-07-05T06:38:48;14.67;;;2.60;;
6031;SDS011;3044;43.232;27.972;2022-07-05T06:41:15;9.03;;;3.17;;
6031;SDS011;3044;43.232;27.972;2022-07-05T06:43:42;7.10;;;2.87;;
6031;SDS011;3044;43.232;27.972;2022-07-05T06:46:09;4.67;;;2.10;;
6031;SDS011;3044;43.232;27.972;2022-07-05T06:48:36;9.13;;;2.63;;
6031;SDS011;3044;43.232;27.972;2022-07-05T06:51:06;7.63;;;2.30;;
6031;SDS011;3044;43.232;27.972;2022-07-05T06:53:33;6.37;;;2.07;;
6031;SDS011;3044;43.232;27.972;2022-07-05T06:56:01;6.20;;;1.70;;
6031;SDS011;3044;43.232;27.972;2022-07-05T06:58:28;7.13;;;2.00;;
6031;SDS011;3044;43.232;27.972;2022-07-05T07:00:55;8.40;;;2.10;;
6031;SDS011;3044;43.232;27.972;2022-07-05T07:03:22;2.73;;;1.63;;
6031;SDS011;3044;43.232;27.972;2022-07-05T07:05:49;3.90;;;2.40;;
6031;SDS011;3044;43.232;27.972;2022-07-05T07:08:18;5.50;;;2.00;;
6031;SDS011;3044;43.232;27.972;2022-07-05T07:11:02;6.60;;;2.37;;
6031;SDS011;3044;43.232;27.972;2022-07-05T07:13:30;5.37;;;2.37;;
6031;SDS011;3044;43.232;27.972;2022-07-05T07:15:57;2.20;;;1.60;;
6031;SDS011;3044;43.232;27.972;2022-07-05T07:18:24;4.20;;;1.93;;
6031;SDS011;3044;43.232;27.972;2022-07-05T07:20:51;6.07;;;2.20;;
6031;SDS011;3044;43.232;27.972;2022-07-05T07:23:20;7.23;;;2.13;;
6031;SDS011;3044;43.232;27.972;2022-07-05T07:25:47;2.90;;;1.30;;
6031;SDS011;3044;43.232;27.972;2022-07-05T07:28:14;9.63;;;2.53;;
6031;SDS011;3044;43.232;27.972;2022-07-05T07:30:42;12.83;;;2.07;;
6031;SDS011;3044;43.232;27.972;2022-07-05T07:33:09;7.37;;;2.27;;
6031;SDS011;3044;43.232;27.972;2022-07-05T07:35:36;4.27;;;1.80;;
6031;SDS011;3044;43.232;27.972;2022-07-05T07:38:03;4.93;;;2.13;;
6031;SDS011;3044;43.232;27.972;2022-07-05T07:40:32;6.37;;;2.17;;
6031;SDS011;3044;43.232;27.972;2022-07-05T07:42:59;3.07;;;1.70;;
6031;SDS011;3044;43.232;27.972;2022-07-05T07:45:26;2.80;;;1.80;;
6031;SDS011;3044;43.232;27.972;2022-07-05T07:47:56;5.13;;;1.90;;
6031;SDS011;3044;43.232;27.972;2022-07-05T07:50:23;10.50;;;2.13;;
6031;SDS011;3044;43.232;27.972;2022-07-05T07:52:50;8.00;;;2.17;;
6031;SDS011;3044;43.232;27.972;2022-07-05T07:55:17;4.27;;;2.17;;
6031;SDS011;3044;43.232;27.972;2022-07-05T07:57:46;5.80;;;1.63;;
6031;SDS011;3044;43.232;27.972;2022-07-05T08:00:13;4.03;;;2.20;;
6031;SDS011;3044;43.232;27.972;2022-07-05T08:02:41;2.90;;;1.53;;
6031;SDS011;3044;43.232;27.972;2022-07-05T08:05:08;2.80;;;2.00;;
6031;SDS011;3044;43.232;27.972;2022-07-05T08:07:35;3.80;;;1.90;;
6031;SDS011;3044;43.232;27.972;2022-07-05T08:10:03;1.80;;;1.70;;
6031;SDS011;3044;43.232;27.972;2022-07-05T08:12:31;2.80;;;1.50;;
6031;SDS011;3044;43.232;27.972;2022-07-05T08:14:59;4.40;;;1.50;;
6031;SDS011;3044;43.232;27.972;2022-07-05T08:17:26;4.80;;;2.07;;
6031;SDS011;3044;43.232;27.972;2022-07-05T08:19:54;6.53;;;2.00;;
6031;SDS011;3044;43.232;27.972;2022-07-05T08:22:38;8.50;;;1.30;;
6031;SDS011;3044;43.232;27.972;2022-07-05T08:25:06;3.67;;;1.90;;
6031;SDS011;3044;43.232;27.972;2022-07-05T08:27:34;4.50;;;1.80;;
6031;SDS011;3044;43.232;27.972;2022-07-05T08:30:02;7.43;;;2.50;;
6031;SDS011;3044;43.232;27.972;2022-07-05T08:32:30;2.23;;;1.67;;
6031;SDS011;3044;43.232;27.972;2022-07-05T08:34:57;7.60;;;1.87;;
6031;SDS011;3044;43.232;27.972;2022-07-05T08:37:24;3.90;;;1.40;;
6031;SDS011;3044;43.232;27.972;2022-07-05T08:39:51;4.67;;;1.80;;
6031;SDS011;3044;43.232;27.972;2022-07-05T08:42:18;3.33;;;1.97;;
6031;SDS011;3044;43.232;27.972;2022-07-05T08:44:46;12.60;;;1.67;;
6031;SDS011;3044;43.232;27.972;2022-07-05T08:47:18;4.30;;;1.90;;
6031;SDS011;3044;43.232;27.972;2022-07-05T08:49:46;2.73;;;2.30;;
6031;SDS011;3044;43.232;27.972;2022-07-05T08:52:16;7.20;;;1.77;;
6031;SDS011;3044;43.232;27.972;2022-07-05T08:54:45;3.70;;;1.50;;
6031;SDS011;3044;43.232;27.972;2022-07-05T08:57:13;6.37;;;1.67;;
6031;SDS011;3044;43.232;27.972;2022-07-05T08:59:40;2.10;;;1.87;;
6031;SDS011;3044;43.232;27.972;2022-07-05T09:02:10;2.23;;;1.70;;
6031;SDS011;3044;43.232;27.972;2022-07-05T09:04:42;1.87;;;1.77;;
6031;SDS011;3044;43.232;27.972;2022-07-05T09:07:12;4.00;;;2.10;;
6031;SDS011;3044;43.232;27.972;2022-07-05T09:09:41;3.10;;;1.60;;
6031;SDS011;3044;43.232;27.972;2022-07-05T09:12:11;9.80;;;2.13;;
6031;SDS011;3044;43.232;27.972;2022-07-05T09:14:40;2.70;;;1.83;;
6031;SDS011;3044;43.232;27.972;2022-07-05T09:17:07;1.73;;;1.63;;
6031;SDS011;3044;43.232;27.972;2022-07-05T09:19:35;9.90;;;2.17;;
6031;SDS011;3044;43.232;27.972;2022-07-05T09:22:05;1.83;;;1.73;;
6031;SDS011;3044;43.232;27.972;2022-07-05T09:24:42;2.40;;;1.70;;
6031;SDS011;3044;43.232;27.972;2022-07-05T09:27:10;1.80;;;1.60;;
6031;SDS011;3044;43.232;27.972;2022-07-05T09:29:39;4.10;;;2.23;;
6031;SDS011;3044;43.232;27.972;2022-07-05T09:32:22;3.33;;;1.73;;
6031;SDS011;3044;43.232;27.972;2022-07-05T09:34:50;4.00;;;1.73;;
6031;SDS011;3044;43.232;27.972;2022-07-05T09:37:19;4.33;;;2.23;;
6031;SDS011;3044;43.232;27.972;2022-07-05T09:39:46;14.17;;;2.03;;
6031;SDS011;3044;43.232;27.972;2022-07-05T09:42:14;12.67;;;2.17;;
6031;SDS011;3044;43.232;27.972;2022-07-05T09:44:46;3.00;;;1.80;;
6031;SDS011;3044;43.232;27.972;2022-07-05T09:47:15;11.93;;;2.20;;
6031;SDS011;3044;43.232;27.972;2022-07-05T09:49:44;2.67;;;1.57;;
6031;SDS011;3044;43.232;27.972;2022-07-05T09:52:26;7.60;;;1.80;;
6031;SDS011;3044;43.232;27.972;2022-07-05T09:55:00;3.47;;;1.53;;
6031;SDS011;3044;43.232;27.972;2022-07-05T09:57:29;2.13;;;1.77;;
6031;SDS011;3044;43.232;27.972;2022-07-05T09:59:59;8.60;;;1.90;;
6031;SDS011;3044;43.232;27.972;2022-07-05T10:02:35;1.90;;;1.70;;
6031;SDS011;3044;43.232;27.972;2022-07-05T10:05:07;3.47;;;1.80;;
6031;SDS011;3044;43.232;27.972;2022-07-05T10:07:37;4.73;;;1.87;;
6031;SDS011;3044;43.232;27.972;2022-07-05T10:10:07;4.77;;;2.30;;
6031;SDS011;3044;43.232;27.972;2022-07-05T10:12:35;6.67;;;2.17;;
6031;SDS011;3044;43.232;27.972;2022-07-05T10:15:04;4.90;;;1.67;;
6031;SDS011;3044;43.232;27.972;2022-07-05T10:17:35;7.93;;;2.03;;
6031;SDS011;3044;43.232;27.972;2022-07-05T10:20:04;3.47;;;1.70;;
6031;SDS011;3044;43.232;27.972;2022-07-05T10:22:34;8.23;;;2.10;;
6031;SDS011;3044;43.232;27.972;2022-07-05T10:25:04;2.60;;;1.77;;
6031;SDS011;3044;43.232;27.972;2022-07-05T10:27:32;4.00;;;2.07;;
6031;SDS011;3044;43.232;27.972;2022-07-05T10:30:02;3.50;;;2.10;;
6031;SDS011;3044;43.232;27.972;2022-07-05T10:32:31;1.73;;;1.50;;
6031;SDS011;3044;43.232;27.972;2022-07-05T10:35:01;2.20;;;1.70;;
6031;SDS011;3044;43.232;27.972;2022-07-05T10:37:30;4.10;;;2.20;;
6031;SDS011;3044;43.232;27.972;2022-07-05T10:40:01;2.03;;;1.73;;
6031;SDS011;3044;43.232;27.972;2022-07-05T10:42:32;5.00;;;1.90;;
6031;SDS011;3044;43.232;27.972;2022-07-05T10:50:42;4.90;;;1.60;;
6031;SDS011;3044;43.232;27.972;2022-07-05T11:49:31;7.63;;;1.90;;
6031;SDS011;3044;43.232;27.972;2022-07-05T11:51:58;4.17;;;1.90;;
6031;SDS011;3044;43.232;27.972;2022-07-05T11:54:27;3.67;;;1.77;;
6031;SDS011;3044;43.232;27.972;2022-07-05T11:56:55;8.03;;;2.03;;
6031;SDS011;3044;43.232;27.972;2022-07-05T11:59:23;9.07;;;1.77;;
6031;SDS011;3044;43.232;27.972;2022-07-05T12:01:51;2.10;;;2.00;;
6031;SDS011;3044;43.232;27.972;2022-07-05T12:04:23;3.50;;;1.80;;
6031;SDS011;3044;43.232;27.972;2022-07-05T12:06:53;7.13;;;1.97;;
6031;SDS011;3044;43.232;27.972;2022-07-05T12:09:24;4.37;;;1.60;;
6031;SDS011;3044;43.232;27.972;2022-07-05T12:11:52;5.63;;;1.70;;
6031;SDS011;3044;43.232;27.972;2022-07-05T12:14:37;3.50;;;1.50;;
6031;SDS011;3044;43.232;27.972;2022-07-05T12:17:14;6.23;;;1.30;;
6031;SDS011;3044;43.232;27.972;2022-07-05T12:19:42;3.87;;;1.60;;
6031;SDS011;3044;43.232;27.972;2022-07-05T12:22:12;4.20;;;1.50;;
6031;SDS011;3044;43.232;27.972;2022-07-05T12:24:39;5.23;;;1.70;;
6031;SDS011;3044;43.232;27.972;2022-07-05T12:27:09;8.47;;;1.77;;
6031;SDS011;3044;43.232;27.972;2022-07-05T12:29:36;2.73;;;1.53;;
6031;SDS011;3044;43.232;27.972;2022-07-05T12:32:04;2.63;;;2.27;;
6031;SDS011;3044;43.232;27.972;2022-07-05T12:34:34;4.23;;;1.57;;
6031;SDS011;3044;43.232;27.972;2022-07-05T12:37:01;5.17;;;2.03;;
6031;SDS011;3044;43.232;27.972;2022-07-05T12:39:31;19.03;;;2.50;;
6031;SDS011;3044;43.232;27.972;2022-07-05T12:41:59;4.50;;;1.60;;
6031;SDS011;3044;43.232;27.972;2022-07-05T12:44:26;2.70;;;1.60;;
6031;SDS011;3044;43.232;27.972;2022-07-05T12:47:02;2.80;;;1.80;;
6031;SDS011;3044;43.232;27.972;2022-07-05T12:49:31;2.40;;;1.63;;
6031;SDS011;3044;43.232;27.972;2022-07-05T12:52:03;3.33;;;1.77;;
6031;SDS011;3044;43.232;27.972;2022-07-05T12:54:32;9.50;;;1.60;;
6031;SDS011;3044;43.232;27.972;2022-07-05T12:57:17;4.53;;;2.23;;
6031;SDS011;3044;43.232;27.972;2022-07-05T13:00:03;3.00;;;1.80;;
6031;SDS011;3044;43.232;27.972;2022-07-05T13:02:35;17.37;;;2.17;;
6031;SDS011;3044;43.232;27.972;2022-07-05T13:05:06;6.63;;;1.70;;
6031;SDS011;3044;43.232;27.972;2022-07-05T13:07:40;2.43;;;2.00;;
6031;SDS011;3044;43.232;27.972;2022-07-05T13:10:16;1.83;;;1.20;;
6031;SDS011;3044;43.232;27.972;2022-07-05T13:12:45;2.03;;;1.40;;
6031;SDS011;3044;43.232;27.972;2022-07-05T13:15:13;4.47;;;2.33;;
6031;SDS011;3044;43.232;27.972;2022-07-05T13:17:41;4.33;;;1.80;;
6031;SDS011;3044;43.232;27.972;2022-07-05T13:20:09;5.47;;;1.40;;
6031;SDS011;3044;43.232;27.972;2022-07-05T13:22:37;5.93;;;1.50;;
6031;SDS011;3044;43.232;27.972;2022-07-05T13:25:04;3.43;;;1.47;;
6031;SDS011;3044;43.232;27.972;2022-07-05T13:27:33;1.93;;;1.63;;
6031;SDS011;3044;43.232;27.972;2022-07-05T13:30:01;13.40;;;2.00;;
6031;SDS011;3044;43.232;27.972;2022-07-05T13:32:29;2.60;;;1.37;;
6031;SDS011;3044;43.232;27.972;2022-07-05T13:34:56;2.77;;;1.53;;
6031;SDS011;3044;43.232;27.972;2022-07-05T13:37:24;4.73;;;2.20;;
6031;SDS011;3044;43.232;27.972;2022-07-05T13:39:51;7.53;;;1.90;;
6031;SDS011;3044;43.232;27.972;2022-07-05T13:42:18;9.70;;;1.70;;
6031;SDS011;3044;43.232;27.972;2022-07-05T13:44:47;1.93;;;1.63;;
6031;SDS011;3044;43.232;27.972;2022-07-05T13:47:14;2.93;;;1.83;;
6031;SDS011;3044;43.232;27.972;2022-07-05T13:49:41;2.13;;;1.60;;
6031;SDS011;3044;43.232;27.972;2022-07-05T13:52:09;2.37;;;1.90;;
6031;SDS011;3044;43.232;27.972;2022-07-05T13:54:36;7.53;;;1.57;;
6031;SDS011;3044;43.232;27.972;2022-07-05T13:57:04;4.07;;;1.60;;
6031;SDS011;3044;43.232;27.972;2022-07-05T13:59:31;16.53;;;1.60;;
6031;SDS011;3044;43.232;27.972;2022-07-05T14:02:00;3.10;;;1.50;;
6031;SDS011;3044;43.232;27.972;2022-07-05T14:04:27;4.10;;;1.50;;
6031;SDS011;3044;43.232;27.972;2022-07-05T14:06:55;2.00;;;1.50;;
6031;SDS011;3044;43.232;27.972;2022-07-05T14:09:22;6.33;;;1.60;;
6031;SDS011;3044;43.232;27.972;2022-07-05T14:11:51;4.87;;;1.63;;
6031;SDS011;3044;43.232;27.972;2022-07-05T14:14:18;4.70;;;1.77;;
6031;SDS011;3044;43.232;27.972;2022-07-05T14:16:45;2.20;;;2.00;;
6031;SDS011;3044;43.232;27.972;2022-07-05T14:19:14;7.33;;;1.63;;
6031;SDS011;3044;43.232;27.972;2022-07-05T14:21:42;6.27;;;2.17;;
6031;SDS011;3044;43.232;27.972;2022-07-05T14:24:12;6.00;;;1.67;;
6031;SDS011;3044;43.232;27.972;2022-07-05T14:26:39;3.30;;;1.63;;
6031;SDS011;3044;43.232;27.972;2022-07-05T14:29:06;7.43;;;2.10;;
6031;SDS011;3044;43.232;27.972;2022-07-05T14:31:34;3.00;;;1.47;;
6031;SDS011;3044;43.232;27.972;2022-07-05T14:34:01;8.13;;;2.47;;
6031;SDS011;3044;43.232;27.972;2022-07-05T14:36:30;3.00;;;1.67;;
6031;SDS011;3044;43.232;27.972;2022-07-05T14:38:57;14.03;;;1.80;;
6031;SDS011;3044;43.232;27.972;2022-07-05T14:41:26;6.67;;;1.83;;
6031;SDS011;3044;43.232;27.972;2022-07-05T14:43:54;2.93;;;1.67;;
6031;SDS011;3044;43.232;27.972;2022-07-05T14:46:21;1.80;;;1.63;;
6031;SDS011;3044;43.232;27.972;2022-07-05T14:48:48;7.20;;;2.10;;
6031;SDS011;3044;43.232;27.972;2022-07-05T14:51:15;1.93;;;1.63;;
6031;SDS011;3044;43.232;27.972;2022-07-05T14:53:46;6.07;;;1.73;;
6031;SDS011;3044;43.232;27.972;2022-07-05T14:56:13;3.10;;;1.70;;
6031;SDS011;3044;43.232;27.972;2022-07-05T14:58:40;14.40;;;2.07;;
6031;SDS011;3044;43.232;27.972;2022-07-05T15:01:07;8.00;;;1.80;;
6031;SDS011;3044;43.232;27.972;2022-07-05T15:03:35;3.93;;;1.80;;
6031;SDS011;3044;43.232;27.972;2022-07-05T15:06:02;1.80;;;1.70;;
6031;SDS011;3044;43.232;27.972;2022-07-05T15:08:29;7.13;;;1.70;;
6031;SDS011;3044;43.232;27.972;2022-07-05T15:10:58;7.33;;;1.93;;
6031;SDS011;3044;43.232;27.972;2022-07-05T15:13:25;7.23;;;1.70;;
6031;SDS011;3044;43.232;27.972;2022-07-05T15:15:53;5.60;;;1.37;;
6031;SDS011;3044;43.232;27.972;2022-07-05T15:18:22;9.90;;;1.73;;
6031;SDS011;3044;43.232;27.972;2022-07-05T15:20:49;5.00;;;2.00;;
6031;SDS011;3044;43.232;27.972;2022-07-05T15:23:18;3.90;;;1.70;;
6031;SDS011;3044;43.232;27.972;2022-07-05T15:25:45;1.87;;;1.73;;
6031;SDS011;3044;43.232;27.972;2022-07-05T15:28:14;4.97;;;1.63;;
6031;SDS011;3044;43.232;27.972;2022-07-05T15:30:42;3.43;;;1.90;;
6031;SDS011;3044;43.232;27.972;2022-07-05T15:33:09;5.33;;;1.53;;
6031;SDS011;3044;43.232;27.972;2022-07-05T15:35:36;16.57;;;2.17;;
6031;SDS011;3044;43.232;27.972;2022-07-05T15:38:03;2.90;;;1.60;;
6031;SDS011;3044;43.232;27.972;2022-07-05T15:40:30;3.10;;;1.60;;
6031;SDS011;3044;43.232;27.972;2022-07-05T15:42:57;7.30;;;2.10;;
6031;SDS011;3044;43.232;27.972;2022-07-05T15:45:26;2.07;;;1.80;;
6031;SDS011;3044;43.232;27.972;2022-07-05T15:47:53;3.40;;;2.00;;
6031;SDS011;3044;43.232;27.972;2022-07-05T15:50:20;5.53;;;2.30;;
6031;SDS011;3044;43.232;27.972;2022-07-05T15:52:47;3.07;;;1.90;;
6031;SDS011;3044;43.232;27.972;2022-07-05T15:55:15;1.77;;;1.67;;
6031;SDS011;3044;43.232;27.972;2022-07-05T15:57:42;13.67;;;1.67;;
6031;SDS011;3044;43.232;27.972;2022-07-05T16:00:09;3.60;;;2.30;;
6031;SDS011;3044;43.232;27.972;2022-07-05T16:02:38;6.10;;;1.80;;
6031;SDS011;3044;43.232;27.972;2022-07-05T16:05:06;4.50;;;1.50;;
6031;SDS011;3044;43.232;27.972;2022-07-05T16:07:34;3.50;;;1.80;;
6031;SDS011;3044;43.232;27.972;2022-07-05T16:10:01;8.43;;;2.33;;